createdAt,value
2018-08-23T00:01:16.100Z,46.34
2018-08-23T00:03:43.893Z,45.60
2018-08-23T00:06:11.533Z,45.08
2018-08-23T00:08:43.891Z,45.74
2018-08-23T00:11:11.699Z,46.50
2018-08-23T00:13:45.093Z,46.15
2018-08-23T00:16:13.102Z,46.67
2018-08-23T00:18:40.810Z,45.71
2018-08-23T00:21:14.299Z,46.65
2018-08-23T00:23:44.920Z,47.11
2018-08-23T00:26:15.983Z,47.33
2018-08-23T00:28:43.678Z,46.46
2018-08-23T00:31:11.399Z,46.16
2018-08-23T00:33:39.160Z,45.80
2018-08-23T00:36:07.117Z,46.36
2018-08-23T00:38:34.810Z,46.92
2018-08-23T00:41:02.560Z,47.50
2018-08-23T00:43:30.226Z,47.96
2018-08-23T00:46:01.463Z,47.20
2018-08-23T00:48:29.215Z,46.92
2018-08-23T00:50:58.922Z,46.68
2018-08-23T00:53:27.626Z,46.64
2018-08-23T00:56:22.042Z,46.58
2018-08-23T00:58:55.556Z,47.07
2018-08-23T01:01:23.255Z,47.13
2018-08-23T01:03:51.694Z,47.11
2018-08-23T01:06:21.810Z,47.48
2018-08-23T01:08:49.538Z,47.02
2018-08-23T01:11:17.329Z,47.18
2018-08-23T01:13:45.196Z,47.96
2018-08-23T01:16:13.743Z,48.21
2018-08-23T01:18:41.598Z,47.14
2018-08-23T01:21:10.020Z,48.22
2018-08-23T01:23:38.494Z,47.71
2018-08-23T01:26:07.255Z,47.81
2018-08-23T01:28:34.987Z,47.52
2018-08-23T01:31:22.538Z,48.04
2018-08-23T01:33:55.772Z,47.48
2018-08-23T01:36:28.519Z,48.11
2018-08-23T01:38:56.215Z,48.41
2018-08-23T01:41:23.891Z,47.84
2018-08-23T01:43:52.322Z,48.02
2018-08-23T01:46:21.213Z,48.10
2018-08-23T01:48:52.296Z,48.76
2018-08-23T01:51:20.247Z,48.04
2018-08-23T01:53:49.674Z,48.55
2018-08-23T01:56:17.974Z,47.71
2018-08-23T01:58:45.671Z,48.68
2018-08-23T02:01:20.415Z,48.57
2018-08-23T02:03:48.189Z,47.90
2018-08-23T02:06:15.946Z,48.25
2018-08-23T02:08:45.270Z,48.71
2018-08-23T02:11:12.995Z,47.95
2018-08-23T02:13:40.720Z,47.75
2018-08-23T02:16:08.427Z,48.87
2018-08-23T02:18:36.218Z,48.32
2018-08-23T02:21:09.331Z,49.17
2018-08-23T02:23:47.623Z,48.06
2018-08-23T02:26:15.466Z,48.89
2018-08-23T02:28:46.750Z,48.10
2018-08-23T02:31:14.494Z,48.79
2018-08-23T02:33:42.211Z,48.07
2018-08-23T02:36:17.619Z,48.24
2018-08-23T02:38:52.991Z,48.82
2018-08-23T02:41:21.248Z,49.05
2018-08-23T02:43:49.007Z,48.91
2018-08-23T02:46:16.743Z,48.93
2018-08-23T02:48:44.470Z,48.91
2018-08-23T02:51:12.206Z,48.95
2018-08-23T02:53:41.322Z,50.09
2018-08-23T02:56:11.436Z,50.69
2018-08-23T02:58:54.126Z,49.92
2018-08-23T03:01:30.594Z,49.97
2018-08-23T03:04:26.119Z,49.83
2018-08-23T03:06:55.719Z,49.82
2018-08-23T03:09:25.899Z,49.71
2018-08-23T03:11:54.940Z,50.55
2018-08-23T03:14:23.589Z,49.50
2018-08-23T03:17:13.600Z,49.55
2018-08-23T03:20:13.028Z,49.25
2018-08-23T03:22:41.482Z,49.38
2018-08-23T03:25:10.346Z,49.76
2018-08-23T03:27:38.099Z,49.97
2018-08-23T03:30:08.183Z,49.87
2018-08-23T03:32:36.223Z,49.97
2018-08-23T03:35:04.202Z,49.83
2018-08-23T03:37:32.274Z,49.22
2018-08-23T03:39:59.991Z,49.84
2018-08-23T03:42:27.974Z,50.06
2018-08-23T03:44:56.700Z,50.05
2018-08-23T03:47:24.735Z,50.21
2018-08-23T03:49:52.607Z,49.95
2018-08-23T03:52:22.057Z,49.79
2018-08-23T03:54:54.750Z,51.29
2018-08-23T03:57:22.542Z,50.89
2018-08-23T03:59:51.460Z,51.42
2018-08-23T04:02:20.347Z,51.75
2018-08-23T04:04:56.234Z,51.27
2018-08-23T04:07:24.074Z,50.56
2018-08-23T04:09:51.788Z,50.91
2018-08-23T04:12:19.645Z,51.34
2018-08-23T04:14:47.375Z,50.04
2018-08-23T04:17:15.273Z,50.15
2018-08-23T04:19:46.562Z,50.60
2018-08-23T04:22:14.285Z,50.96
2018-08-23T04:24:48.598Z,50.42
2018-08-23T04:27:17.855Z,51.31
2018-08-23T04:29:46.715Z,53.21
2018-08-23T04:32:20.954Z,53.16
2018-08-23T04:34:48.683Z,53.61
2018-08-23T04:37:16.834Z,53.05
2018-08-23T04:39:50.371Z,51.69
2018-08-23T04:42:18.054Z,50.61
2018-08-23T04:44:50.950Z,51.42
2018-08-23T04:47:26.520Z,51.45
2018-08-23T04:49:54.256Z,51.69
2018-08-23T04:52:22.686Z,51.36
2018-08-23T04:54:51.487Z,51.33
2018-08-23T04:57:19.290Z,50.48
2018-08-23T04:59:47.321Z,50.49
2018-08-23T05:02:15.054Z,51.10
2018-08-23T05:04:42.738Z,51.31
2018-08-23T05:07:10.653Z,51.23
2018-08-23T05:09:38.447Z,50.68
2018-08-23T05:12:06.130Z,50.66
2018-08-23T05:14:33.915Z,50.81
2018-08-23T05:17:01.642Z,50.54
2018-08-23T05:19:29.375Z,50.53
2018-08-23T05:21:57.083Z,51.07
2018-08-23T05:24:24.774Z,51.29
2018-08-23T05:26:52.476Z,51.38
2018-08-23T05:29:20.204Z,51.19
2018-08-23T05:31:47.899Z,51.71
2018-08-23T05:34:15.800Z,52.06
2018-08-23T05:36:43.538Z,51.96
2018-08-23T05:39:11.270Z,51.86
2018-08-23T05:41:38.959Z,51.75
2018-08-23T05:44:13.937Z,51.78
2018-08-23T05:46:45.646Z,51.72
2018-08-23T05:49:13.811Z,51.47
2018-08-23T05:51:42.607Z,52.20
2018-08-23T05:54:10.344Z,52.29
2018-08-23T05:56:38.790Z,51.45
2018-08-23T05:59:13.347Z,51.35
2018-08-23T06:01:41.855Z,51.64
2018-08-23T06:04:09.703Z,51.48
2018-08-23T06:06:38.092Z,51.37
2018-08-23T06:09:12.958Z,51.17
2018-08-23T06:11:41.006Z,51.72
2018-08-23T06:14:08.884Z,51.10
2018-08-23T06:16:40.979Z,51.51
2018-08-23T06:19:08.722Z,50.66
2018-08-23T06:21:36.403Z,50.61
2018-08-23T06:24:05.361Z,51.26
2018-08-23T06:26:46.867Z,51.39
2018-08-23T06:29:18.956Z,51.09
2018-08-23T06:32:00.456Z,51.31
2018-08-23T06:34:29.804Z,51.54
2018-08-23T06:36:57.654Z,51.27
2018-08-23T06:39:25.335Z,51.98
2018-08-23T06:41:56.131Z,51.59
2018-08-23T06:44:38.524Z,51.58
2018-08-23T06:47:06.327Z,51.41
2018-08-23T06:49:34.038Z,52.33
2018-08-23T06:52:10.123Z,51.95
2018-08-23T06:54:38.506Z,52.50
2018-08-23T06:57:06.210Z,52.31
2018-08-23T06:59:33.954Z,52.88
2018-08-23T07:02:02.455Z,52.45
2018-08-23T07:04:30.173Z,53.88
2018-08-23T07:06:57.859Z,53.06
2018-08-23T07:09:25.714Z,53.26
2018-08-23T07:12:02.884Z,52.87
2018-08-23T07:14:30.575Z,53.83
2018-08-23T07:17:14.782Z,54.08
2018-08-23T07:19:42.931Z,53.51
2018-08-23T07:22:10.655Z,53.73
2018-08-23T07:24:43.850Z,53.22
2018-08-23T07:27:12.702Z,53.55
2018-08-23T07:29:45.630Z,53.39
2018-08-23T07:32:16.471Z,53.63
2018-08-23T07:34:58.014Z,54.11
2018-08-23T07:37:25.898Z,53.99
2018-08-23T07:40:00.757Z,53.92
2018-08-23T07:42:30.363Z,54.21
2018-08-23T07:44:59.511Z,53.45
2018-08-23T07:47:28.755Z,53.29
2018-08-23T07:49:58.750Z,53.02
2018-08-23T07:52:33.713Z,53.42
2018-08-23T07:55:04.955Z,53.53
2018-08-23T07:57:35.665Z,52.80
2018-08-23T08:00:29.265Z,52.68
2018-08-23T08:02:58.079Z,52.59
2018-08-23T08:05:31.626Z,52.20
2018-08-23T08:08:02.983Z,53.08
2018-08-23T08:10:41.300Z,52.24
2018-08-23T08:13:10.861Z,52.60
2018-08-23T08:15:45.314Z,52.73
2018-08-23T08:18:25.400Z,51.52
2018-08-23T08:21:02.757Z,52.07
2018-08-23T08:23:32.225Z,52.46
2018-08-23T08:26:00.069Z,52.03
2018-08-23T08:28:27.855Z,52.23
2018-08-23T08:30:59.789Z,50.83
2018-08-23T08:33:32.954Z,51.41
2018-08-23T08:36:02.382Z,51.33
2018-08-23T08:38:31.557Z,51.25
2018-08-23T08:40:59.444Z,50.58
2018-08-23T08:43:27.179Z,50.04
2018-08-23T08:45:56.154Z,49.90
2018-08-23T08:48:30.887Z,49.94
2018-08-23T08:51:18.726Z,48.96
2018-08-23T08:53:46.858Z,50.02
2018-08-23T08:56:14.990Z,49.89
2018-08-23T08:58:42.870Z,49.11
2018-08-23T09:01:10.592Z,49.51
2018-08-23T09:03:38.643Z,49.02
2018-08-23T09:06:07.707Z,49.52
2018-08-23T09:08:36.635Z,48.17
2018-08-23T09:11:04.971Z,49.48
2018-08-23T09:13:39.143Z,49.40
2018-08-23T09:16:08.447Z,49.22
2018-08-23T09:18:39.204Z,48.61
2018-08-23T09:21:07.184Z,48.90
2018-08-23T09:23:34.893Z,48.56
2018-08-23T09:26:02.714Z,49.55
2018-08-23T09:28:30.570Z,49.40
2018-08-23T09:30:58.279Z,48.93
2018-08-23T09:33:27.246Z,48.83
2018-08-23T09:35:55.003Z,48.38
2018-08-23T09:38:22.761Z,48.88
2018-08-23T09:40:50.531Z,48.62
2018-08-23T09:43:18.360Z,47.76
2018-08-23T09:45:46.279Z,48.29
2018-08-23T09:48:14.018Z,48.21
2018-08-23T09:50:41.804Z,47.16
2018-08-23T09:53:25.168Z,48.28
2018-08-23T09:55:55.491Z,47.32
2018-08-23T09:58:29.103Z,48.28
2018-08-23T10:01:02.488Z,48.02
2018-08-23T10:03:35.927Z,47.49
2018-08-23T10:06:09.619Z,48.56
2018-08-23T10:08:43.042Z,48.33
2018-08-23T10:11:19.389Z,48.28
2018-08-23T10:13:52.819Z,47.82
2018-08-23T10:16:26.352Z,47.37
2018-08-23T10:18:58.085Z,47.78
2018-08-23T10:22:29.384Z,47.14
2018-08-23T10:25:01.686Z,47.33
2018-08-23T10:27:29.403Z,47.34
2018-08-23T10:29:57.079Z,46.75
2018-08-23T10:32:24.843Z,46.15
2018-08-23T10:34:52.510Z,46.30
2018-08-23T10:37:20.231Z,46.68
2018-08-23T10:39:47.951Z,46.46
2018-08-23T10:42:16.436Z,46.03
2018-08-23T10:44:44.295Z,47.17
2018-08-23T10:47:16.539Z,46.37
2018-08-23T10:49:44.391Z,46.49
2018-08-23T10:52:12.076Z,45.88
2018-08-23T10:54:39.911Z,46.98
2018-08-23T10:57:12.508Z,46.17
2018-08-23T10:59:40.214Z,47.50
2018-08-23T11:02:08.052Z,47.97
2018-08-23T11:04:35.791Z,47.60
2018-08-23T11:07:03.516Z,48.42
2018-08-23T11:09:37.068Z,47.87
2018-08-23T11:12:06.531Z,48.15
2018-08-23T11:14:40.343Z,47.38
2018-08-23T11:17:13.997Z,48.02
2018-08-23T11:19:47.559Z,47.98
2018-08-23T11:22:15.275Z,49.24
2018-08-23T11:24:42.995Z,48.47
2018-08-23T11:27:10.675Z,48.76
2018-08-23T11:29:38.536Z,47.87
2018-08-23T11:32:06.154Z,48.37
2018-08-23T11:34:34.130Z,47.16
2018-08-23T11:37:01.835Z,47.27
2018-08-23T11:39:29.548Z,47.15
2018-08-23T11:41:57.266Z,46.77
2018-08-23T11:44:24.963Z,47.45
2018-08-23T11:46:52.658Z,48.11
2018-08-23T11:49:20.407Z,47.36
2018-08-23T11:51:48.179Z,46.96
2018-08-23T11:54:15.919Z,46.33
2018-08-23T11:56:43.720Z,46.96
2018-08-23T11:59:11.778Z,46.15
2018-08-23T12:01:39.464Z,46.84
2018-08-23T12:04:07.387Z,46.53
2018-08-23T12:06:35.176Z,46.70
2018-08-23T12:09:03.331Z,46.59
2018-08-23T12:11:31.044Z,47.13
2018-08-23T12:13:58.955Z,46.21
2018-08-23T12:16:26.631Z,46.44
2018-08-23T12:18:54.359Z,46.35
2018-08-23T12:21:22.070Z,47.13
2018-08-23T12:23:49.754Z,47.06
2018-08-23T12:26:17.604Z,46.22
2018-08-23T12:28:51.387Z,46.15
2018-08-23T12:31:19.086Z,46.31
2018-08-23T12:33:46.823Z,45.74
2018-08-23T12:36:19.226Z,45.93
2018-08-23T12:38:52.682Z,45.57
2018-08-23T12:41:26.026Z,46.23
2018-08-23T12:43:53.718Z,45.79
2018-08-23T12:46:21.476Z,44.43
2018-08-23T12:48:53.722Z,45.38
2018-08-23T12:51:21.467Z,45.13
2018-08-23T12:53:49.269Z,44.75
2018-08-23T12:56:17.026Z,45.28
2018-08-23T12:58:44.735Z,45.54
2018-08-23T13:01:12.455Z,44.95
2018-08-23T13:03:40.203Z,44.38
2018-08-23T13:06:07.894Z,44.28
2018-08-23T13:08:35.615Z,44.62
2018-08-23T13:11:03.372Z,44.58
2018-08-23T13:13:31.037Z,43.96
2018-08-23T13:15:58.784Z,43.40
2018-08-23T13:18:26.503Z,43.08
2018-08-23T13:20:54.259Z,43.08
2018-08-23T13:23:21.946Z,43.52
2018-08-23T13:25:57.013Z,43.08
2018-08-23T13:28:25.854Z,42.93
2018-08-23T13:30:53.842Z,43.36
2018-08-23T13:33:22.131Z,42.29
2018-08-23T13:35:49.858Z,42.82
2018-08-23T13:38:18.035Z,42.46
2018-08-23T13:40:45.778Z,43.01
2018-08-23T13:43:13.463Z,42.40
2018-08-23T13:45:41.207Z,42.13
2018-08-23T13:48:08.922Z,41.81
2018-08-23T13:50:36.685Z,42.48
2018-08-23T13:53:04.418Z,41.94
2018-08-23T13:55:32.120Z,42.29
2018-08-23T13:58:00.079Z,41.86
2018-08-23T14:00:33.883Z,42.26
2018-08-23T14:03:01.610Z,40.95
2018-08-23T14:05:29.327Z,40.68
2018-08-23T14:07:57.022Z,41.22
2018-08-23T14:10:24.723Z,40.89
2018-08-23T14:12:52.496Z,39.81
2018-08-23T14:15:25.931Z,39.88
2018-08-23T14:17:53.699Z,39.54
2018-08-23T14:20:21.382Z,39.40
2018-08-23T14:22:48.997Z,39.39
2018-08-23T14:25:16.689Z,39.12
2018-08-23T14:27:44.337Z,39.64
2018-08-23T14:30:11.965Z,39.64
2018-08-23T14:32:39.682Z,39.50
2018-08-23T14:35:07.381Z,39.85
2018-08-23T14:37:35.005Z,39.32
2018-08-23T14:40:02.725Z,39.96
2018-08-23T14:42:30.385Z,39.93
2018-08-23T14:44:58.074Z,39.27
2018-08-23T14:48:33.179Z,39.32
2018-08-23T14:51:00.801Z,39.25
2018-08-23T14:53:29.555Z,39.89
2018-08-23T14:56:02.990Z,39.83
2018-08-23T14:58:30.785Z,39.13
2018-08-23T15:00:58.511Z,39.14
2018-08-23T15:03:26.321Z,38.69
2018-08-23T15:05:53.967Z,39.06
2018-08-23T15:08:21.586Z,39.48
2018-08-23T15:10:49.257Z,38.80
2018-08-23T15:13:16.873Z,38.90
2018-08-23T15:15:51.854Z,38.00
2018-08-23T15:18:20.786Z,40.12
2018-08-23T15:20:49.056Z,39.58
2018-08-23T15:23:16.677Z,38.19
2018-08-23T15:25:44.297Z,39.67
2018-08-23T15:28:11.965Z,38.70
2018-08-23T15:30:39.689Z,38.07
2018-08-23T15:33:10.859Z,38.37
2018-08-23T15:35:38.542Z,39.00
2018-08-23T15:38:06.500Z,37.79
2018-08-23T15:40:34.893Z,37.22
2018-08-23T15:43:03.630Z,37.44
2018-08-23T15:45:31.766Z,38.27
2018-08-23T15:47:59.584Z,38.40
2018-08-23T15:50:27.290Z,37.89
2018-08-23T15:52:56.320Z,38.54
2018-08-23T15:55:24.374Z,37.89
2018-08-23T15:57:52.798Z,37.26
2018-08-23T16:00:22.750Z,37.21
2018-08-23T16:02:51.461Z,36.93
2018-08-23T16:05:19.261Z,37.25
2018-08-23T16:07:49.995Z,37.33
2018-08-23T16:10:17.744Z,37.33
2018-08-23T16:12:45.863Z,37.12
2018-08-23T16:15:20.497Z,37.07
2018-08-23T16:17:54.466Z,37.26
2018-08-23T16:20:28.092Z,38.02
2018-08-23T16:22:56.073Z,37.87
2018-08-23T16:25:23.775Z,37.65
2018-08-23T16:27:52.527Z,37.78
2018-08-23T16:30:20.564Z,38.76
2018-08-23T16:32:48.544Z,38.42
2018-08-23T16:35:16.274Z,38.36
2018-08-23T16:37:44.403Z,38.71
2018-08-23T16:40:16.951Z,39.29
2018-08-23T16:42:45.135Z,39.41
2018-08-23T16:45:12.879Z,39.57
2018-08-23T16:47:40.569Z,39.25
2018-08-23T16:50:09.675Z,41.52
2018-08-23T16:52:37.377Z,44.38
2018-08-23T16:55:05.557Z,45.69
2018-08-23T16:57:33.233Z,46.01
2018-08-23T17:00:00.886Z,47.17
2018-08-23T17:02:28.615Z,47.58
2018-08-23T17:04:59.978Z,47.75
2018-08-23T17:07:27.764Z,48.41
2018-08-23T17:09:55.479Z,47.44
2018-08-23T17:12:23.150Z,46.96
2018-08-23T17:14:50.835Z,47.68
2018-08-23T17:17:24.279Z,47.52
2018-08-23T17:19:52.122Z,48.13
2018-08-23T17:22:19.894Z,48.04
2018-08-23T17:24:48.045Z,47.70
2018-08-23T17:27:16.754Z,47.75
2018-08-23T17:29:44.802Z,47.34
2018-08-23T17:32:12.662Z,46.17
2018-08-23T17:34:40.311Z,45.74
2018-08-23T17:37:08.310Z,46.30
2018-08-23T17:39:36.473Z,45.13
2018-08-23T17:42:04.322Z,45.78
2018-08-23T17:44:32.335Z,46.81
2018-08-23T17:47:00.002Z,47.58
2018-08-23T17:49:27.722Z,48.97
2018-08-23T17:51:55.367Z,48.15
2018-08-23T17:54:23.030Z,47.93
2018-08-23T17:56:51.019Z,47.62
2018-08-23T17:59:18.779Z,48.60
2018-08-23T18:01:46.527Z,47.89
2018-08-23T18:04:14.258Z,48.04
2018-08-23T18:06:42.155Z,48.03
2018-08-23T18:09:11.642Z,48.75
2018-08-23T18:11:39.547Z,48.18
2018-08-23T18:14:07.995Z,47.79
2018-08-23T18:16:41.671Z,47.87
2018-08-23T18:19:09.745Z,47.88
2018-08-23T18:21:38.351Z,46.81
2018-08-23T18:24:06.122Z,47.34
2018-08-23T18:26:33.971Z,47.94
2018-08-23T18:29:02.043Z,47.45
2018-08-23T18:31:29.710Z,48.21
2018-08-23T18:33:58.138Z,48.31
2018-08-23T18:36:25.794Z,48.82
2018-08-23T18:38:53.482Z,48.68
2018-08-23T18:41:21.563Z,49.95
2018-08-23T18:43:49.245Z,49.07
2018-08-23T18:46:17.029Z,50.05
2018-08-23T18:48:44.914Z,50.87
2018-08-23T18:51:14.891Z,51.19
2018-08-23T18:53:42.766Z,50.64
2018-08-23T18:56:10.646Z,50.04
2018-08-23T18:58:38.414Z,51.88
2018-08-23T19:01:06.239Z,51.56
2018-08-23T19:03:33.967Z,51.45
2018-08-23T19:06:01.679Z,50.56
2018-08-23T19:08:29.386Z,51.07
2018-08-23T19:10:57.429Z,50.00
2018-08-23T19:13:25.109Z,51.04
2018-08-23T19:15:58.701Z,50.97
2018-08-23T19:18:26.398Z,51.07
2018-08-23T19:20:54.507Z,50.30
2018-08-23T19:23:22.214Z,49.86
2018-08-23T19:25:49.901Z,49.38
2018-08-23T19:28:18.578Z,48.27
2018-08-23T19:30:47.326Z,49.13
2018-08-23T19:33:15.062Z,48.85
2018-08-23T19:35:42.782Z,49.83
2018-08-23T19:38:10.517Z,49.33
2018-08-23T19:40:38.275Z,49.02
2018-08-23T19:43:06.114Z,49.78
2018-08-23T19:45:39.439Z,50.00
2018-08-23T19:48:07.190Z,51.30
2018-08-23T19:50:34.880Z,51.68
2018-08-23T19:53:02.809Z,52.33
2018-08-23T19:55:30.739Z,52.63
2018-08-23T19:57:58.385Z,53.30
2018-08-23T20:00:26.125Z,52.66
2018-08-23T20:02:53.902Z,52.29
2018-08-23T20:05:21.642Z,52.48
2018-08-23T20:07:50.056Z,53.52
2018-08-23T20:10:17.788Z,54.23
2018-08-23T20:12:46.123Z,53.26
2018-08-23T20:15:16.134Z,54.02
2018-08-23T20:17:43.880Z,53.67
2018-08-23T20:20:11.603Z,53.03
2018-08-23T20:22:39.326Z,52.83
2018-08-23T20:25:07.035Z,52.43
2018-08-23T20:27:35.039Z,53.02
2018-08-23T20:30:02.960Z,53.06
2018-08-23T20:32:34.394Z,52.44
2018-08-23T20:35:02.093Z,52.95
2018-08-23T20:37:29.760Z,53.44
2018-08-23T20:39:57.494Z,52.10
2018-08-23T20:42:25.323Z,55.62
2018-08-23T20:44:53.637Z,58.36
2018-08-23T20:47:21.467Z,58.50
2018-08-23T20:49:49.199Z,57.00
2018-08-23T20:52:16.935Z,57.54
2018-08-23T20:54:45.159Z,58.57
2018-08-23T20:57:13.824Z,60.58
2018-08-23T20:59:41.565Z,61.22
2018-08-23T21:02:09.479Z,60.61
2018-08-23T21:04:37.244Z,60.66
2018-08-23T21:07:05.071Z,59.45
2018-08-23T21:09:32.802Z,60.86
2018-08-23T21:12:00.638Z,60.60
2018-08-23T21:14:28.334Z,61.06
2018-08-23T21:16:56.934Z,61.61
2018-08-23T21:19:25.001Z,61.22
2018-08-23T21:21:52.747Z,60.82
2018-08-23T21:24:20.503Z,60.77
2018-08-23T21:26:48.498Z,60.86
2018-08-23T21:29:16.286Z,60.11
2018-08-23T21:31:44.151Z,60.96
2018-08-23T21:34:11.889Z,60.78
2018-08-23T21:36:40.179Z,60.56
2018-08-23T21:39:08.942Z,60.39
2018-08-23T21:41:36.746Z,60.25
2018-08-23T21:44:04.780Z,61.51
2018-08-23T21:46:32.795Z,61.37
2018-08-23T21:49:00.709Z,60.59
2018-08-23T21:51:28.532Z,60.43
2018-08-23T21:53:56.406Z,61.27
2018-08-23T21:56:28.055Z,61.48
2018-08-23T21:58:56.023Z,61.51
2018-08-23T22:01:23.802Z,60.89
2018-08-23T22:03:52.071Z,60.74
2018-08-23T22:06:19.953Z,60.56
2018-08-23T22:08:49.327Z,61.17
2018-08-23T22:11:17.596Z,60.70
2018-08-23T22:13:45.608Z,61.16
2018-08-23T22:16:13.406Z,61.76
2018-08-23T22:18:41.295Z,60.94
2018-08-23T22:21:09.066Z,61.26
2018-08-23T22:23:36.978Z,61.08
2018-08-23T22:26:04.804Z,61.82
2018-08-23T22:28:32.554Z,61.08
2018-08-23T22:31:00.357Z,61.21
2018-08-23T22:33:28.080Z,61.06
2018-08-23T22:35:55.929Z,60.89
2018-08-23T22:38:23.946Z,61.47
2018-08-23T22:40:51.841Z,60.81
2018-08-23T22:43:19.673Z,60.69
2018-08-23T22:45:47.700Z,60.38
2018-08-23T22:48:15.571Z,60.84
2018-08-23T22:50:43.439Z,60.74
2018-08-23T22:53:11.291Z,60.33
2018-08-23T22:55:39.139Z,59.72
2018-08-23T22:58:06.988Z,61.10
2018-08-23T23:00:41.160Z,60.42
2018-08-23T23:03:14.657Z,61.13
2018-08-23T23:05:42.884Z,60.31
2018-08-23T23:08:10.663Z,60.30
2018-08-23T23:10:39.116Z,60.14
2018-08-23T23:13:06.924Z,61.23
2018-08-23T23:15:34.692Z,60.87
2018-08-23T23:18:02.959Z,60.46
2018-08-23T23:20:30.889Z,60.04
2018-08-23T23:22:58.841Z,60.10
2018-08-23T23:25:29.891Z,60.30
2018-08-23T23:27:57.809Z,60.50
2018-08-23T23:30:25.526Z,60.67
2018-08-23T23:32:53.617Z,61.52
2018-08-23T23:35:21.537Z,60.64
2018-08-23T23:37:49.466Z,60.96
2018-08-23T23:40:17.401Z,61.13
2018-08-23T23:42:45.265Z,61.01
2018-08-23T23:45:12.988Z,61.44
2018-08-23T23:47:40.775Z,60.83
2018-08-23T23:50:08.622Z,62.18
2018-08-23T23:52:36.429Z,61.80
2018-08-23T23:55:04.273Z,61.83
2018-08-23T23:57:32.369Z,61.21
